KUNV/SCE METAR and TAF weather

Enter ICAO airport designator
Station Type Date Time Source
KUNV METAR 2019/06/17 13:53 UTC NOAA

KUNV 171353Z 00000KT 2 SM -DZ BKN002 BKN007 OVC017 18/18 A3000


Station Type Date Time Source
KUNV Decoded METAR 2019/06/17 13:53 UTC NOAA

State College, University Park Airport, PA, United States (KUNV) 40-51N 077-51W
Jun 17, 2019 - 09:53 AM EDT / 2019.06.17 1353 UTC
Wind: Calm:0
Visibility: 2 mile(s):0
Sky conditions: overcast
Weather: light drizzle
Temperature: 64 F (18 C)
Dew Point: 64 F (18 C)
Relative Humidity: 100%
Pressure (altimeter): 30 in. Hg (1015 hPa)
ob: KUNV 171353Z 00000KT 2 SM -DZ BKN002 BKN007 OVC017 18/18 A3000
cycle: 14

Station Type Date Time Source
KUNV TAF 2019/06/17 14:03 UTC NOAA

TAF
AMD KUNV 171400Z 1714/1812 00000KT 1 1/2SM -SHRA BR OVC004
FM171600 VRB04KT P6SM VCSH BKN010 BKN035
FM180200 VRB05KT 5SM -SHRA BR OVC025

Example: see airport list